RKTN/TAE METAR and TAF weather

Enter ICAO airport designator
Station Type Date Time Source
RKTN METAR 2019/12/16 06:00 UTC NOAA

RKTN 160600Z 29003KT CAVOK 13/01 Q1022


Station Type Date Time Source
RKTN Decoded METAR 2019/12/16 06:00 UTC NOAA

Taegu Ab, Korea, South (RKTN) 35-54N 128-39E 37M
Dec 16, 2019 - 01:00 AM EST / 2019.12.16 0600 UTC
Wind: from the WNW (290 degrees) at 3 MPH (3 KT):0
Visibility: greater than 7 mile(s):0
Temperature: 55 F (13 C)
Dew Point: 33 F (1 C)
Relative Humidity: 43%
Pressure (altimeter): 30.18 in. Hg (1022 hPa)
ob: RKTN 160600Z 29003KT CAVOK 13/01 Q1022
cycle: 6

Station Type Date Time Source
RKTN TAF 2019/12/16 06:09 UTC NOAA

TAF RKTN 160500Z 1606/1712 30006KT CAVOK TX14/1606Z TN04/1621Z
BECMG 1617/1618 24006KT 9999 SCT030 BKN100
BECMG 1623/1624 4800 -RA BKN025 OVC080
BECMG 1709/1710 13006KT
BECMG 1717/1718 24006KT

Example: see airport list